Terminal Aerodrome Forecast
Issued by NWS

Home | Current Version | Previous Version | Text Only | Print | Product List | Glossary On
Versions: 1 2 3 4 5 6 7 8 9 10 11 12 13 14 15 16 17 18 19 20 21 22 23 24 25 26 27 28 29 30 31 32 33 34 35
000
FTUS44 KOUN 210520
TAFPNC
TAF
KPNC 210520Z 2106/2206 22010KT P6SM SCT250
     FM211500 16008KT P6SM OVC100 PROB30 2122/2203 -SHRA BKN060
     FM220300 06010KT P6SM -RA OVC030
      TEMPO 2203/2206 3SM RA BR OVC015=

USA.gov is the U.S. government's official web portal to all federal, state and local government web resources and services.